Time;durP1;ratioP1;P1;durP2;ratioP2;P2;SDS_P1;SDS_P2;PMS_P1;PMS_P2;Temp;Humidity;BMP_temperature;BMP_pressure;BME280_temperature;BME280_humidity;BME280_pressure;Samples;Min_cycle;Max_cycle;Signal;HPM_P1;HPM_P2
2023/02/27 00:00:40;;;;;;;3.95;2.63;;;;;;;;;;5068002;28;20369;-59
2023/02/27 00:03:06;;;;;;;3.95;3.15;;;;;;;;;;5066838;28;20020;-58
2023/02/27 00:05:31;;;;;;;4.38;2.75;;;;;;;;;;5068823;28;20016;-60
2023/02/27 00:07:57;;;;;;;4.13;2.38;;;;;;;;;;5068591;28;20024;-59
2023/02/27 00:10:22;;;;;;;5.65;2.67;;;;;;;;;;5066852;28;20170;-59
2023/02/27 00:12:48;;;;;;;4.60;2.10;;;;;;;;;;5068693;28;20355;-60
2023/02/27 00:15:16;;;;;;;2.63;2.20;;;;;;;;;;5066568;28;20040;-60
2023/02/27 00:17:42;;;;;;;4.75;2.67;;;;;;;;;;5066822;28;20050;-60
2023/02/27 00:20:12;;;;;;;2.97;2.22;;;;;;;;;;5065806;28;20445;-59
2023/02/27 00:22:39;;;;;;;3.22;2.35;;;;;;;;;;5067713;28;20032;-60
2023/02/27 00:25:06;;;;;;;4.30;2.35;;;;;;;;;;5067781;28;20048;-60
2023/02/27 00:27:32;;;;;;;4.80;2.30;;;;;;;;;;5067326;28;20078;-60
2023/02/27 00:29:58;;;;;;;3.25;2.30;;;;;;;;;;5050142;28;20420;-60
2023/02/27 00:32:23;;;;;;;4.05;2.40;;;;;;;;;;5068078;28;20020;-60
2023/02/27 00:34:49;;;;;;;3.55;2.30;;;;;;;;;;5066641;28;20083;-58
2023/02/27 00:37:14;;;;;;;4.13;2.25;;;;;;;;;;5067741;28;20021;-61
2023/02/27 00:39:40;;;;;;;3.67;2.28;;;;;;;;;;5066157;28;20024;-57
2023/02/27 00:42:05;;;;;;;4.13;2.65;;;;;;;;;;5034755;28;20135;-59
2023/02/27 00:44:31;;;;;;;3.97;2.22;;;;;;;;;;5068679;28;20079;-59
2023/02/27 00:46:56;;;;;;;2.65;1.90;;;;;;;;;;5051982;28;20043;-59
2023/02/27 00:49:21;;;;;;;3.70;2.10;;;;;;;;;;5074280;28;20070;-59
2023/02/27 00:51:47;;;;;;;2.05;1.85;;;;;;;;;;5074500;28;20024;-58
2023/02/27 00:54:12;;;;;;;2.50;2.17;;;;;;;;;;5056831;28;20020;-60
2023/02/27 00:56:38;;;;;;;4.70;2.30;;;;;;;;;;5057078;28;20048;-60
2023/02/27 00:59:03;;;;;;;3.83;2.08;;;;;;;;;;5075550;28;20728;-58
2023/02/27 01:01:29;;;;;;;5.65;2.30;;;;;;;;;;5072748;28;20466;-58
2023/02/27 01:03:54;;;;;;;3.10;2.03;;;;;;;;;;5073692;28;20066;-57
2023/02/27 01:06:20;;;;;;;4.18;2.50;;;;;;;;;;5055171;28;20029;-54
2023/02/27 01:08:45;;;;;;;4.85;2.25;;;;;;;;;;5074184;28;20085;-55
2023/02/27 01:11:11;;;;;;;3.00;2.17;;;;;;;;;;5075262;28;20111;-54
2023/02/27 01:13:36;;;;;;;3.58;2.53;;;;;;;;;;5073021;28;20075;-56
2023/02/27 01:16:02;;;;;;;2.33;1.98;;;;;;;;;;5074712;28;20039;-56
2023/02/27 01:18:27;;;;;;;3.08;1.92;;;;;;;;;;5074076;28;20027;-54
2023/02/27 01:20:53;;;;;;;2.85;2.20;;;;;;;;;;5074492;28;20474;-56
2023/02/27 01:23:19;;;;;;;3.83;2.70;;;;;;;;;;5073363;28;20032;-56
2023/02/27 01:25:46;;;;;;;3.05;2.20;;;;;;;;;;5072007;28;20403;-56
2023/02/27 01:28:12;;;;;;;2.72;2.40;;;;;;;;;;5073431;28;20028;-55
2023/02/27 01:30:37;;;;;;;4.63;2.55;;;;;;;;;;5071842;28;20116;-56
2023/02/27 01:33:03;;;;;;;2.53;2.08;;;;;;;;;;5073723;28;20446;-56
2023/02/27 01:35:28;;;;;;;5.28;2.40;;;;;;;;;;5069423;28;20028;-56
2023/02/27 01:37:54;;;;;;;3.75;2.05;;;;;;;;;;5072258;28;20397;-56
2023/02/27 01:40:19;;;;;;;2.22;1.85;;;;;;;;;;5073185;28;20060;-56
2023/02/27 01:42:46;;;;;;;5.05;2.22;;;;;;;;;;5073853;28;20557;-56
2023/02/27 01:45:11;;;;;;;3.00;2.25;;;;;;;;;;5074512;28;20129;-56
2023/02/27 01:47:40;;;;;;;3.50;2.53;;;;;;;;;;5072997;28;20485;-55
2023/02/27 01:50:07;;;;;;;2.95;2.50;;;;;;;;;;5073660;28;20559;-56
2023/02/27 01:52:33;;;;;;;3.03;2.47;;;;;;;;;;5073364;28;20028;-56
2023/02/27 01:54:59;;;;;;;4.65;2.30;;;;;;;;;;5075387;28;20024;-55
2023/02/27 01:57:25;;;;;;;4.25;2.30;;;;;;;;;;5073416;28;20030;-55
2023/02/27 01:59:51;;;;;;;3.75;2.60;;;;;;;;;;5068800;28;20493;-55
2023/02/27 02:02:22;;;;;;;3.75;1.88;;;;;;;;;;5070683;28;20036;-55
2023/02/27 02:04:49;;;;;;;2.95;1.90;;;;;;;;;;5066498;28;20032;-60
2023/02/27 02:07:17;;;;;;;4.07;2.25;;;;;;;;;;5052783;28;20089;-60
2023/02/27 02:09:47;;;;;;;2.42;2.08;;;;;;;;;;5070338;28;20020;-60
2023/02/27 02:12:14;;;;;;;3.63;2.33;;;;;;;;;;5069848;28;20044;-60
2023/02/27 02:14:40;;;;;;;3.55;2.45;;;;;;;;;;5074393;28;20035;-59
2023/02/27 02:17:34;;;;;;;3.00;2.05;;;;;;;;;;5071704;28;20033;-58
2023/02/27 02:20:08;;;;;;;2.53;2.13;;;;;;;;;;5067753;28;20051;-60
2023/02/27 02:22:40;;;;;;;3.05;1.95;;;;;;;;;;5070180;28;20048;-61
2023/02/27 02:25:41;;;;;;;7.28;2.45;;;;;;;;;;5070663;28;20063;-58
2023/02/27 02:28:25;;;;;;;2.90;2.00;;;;;;;;;;5067206;28;20062;-60
2023/02/27 02:31:18;;;;;;;3.33;2.20;;;;;;;;;;5070363;28;20040;-58
2023/02/27 02:34:04;;;;;;;2.63;2.17;;;;;;;;;;5070377;28;20028;-58
2023/02/27 02:37:08;;;;;;;3.25;2.10;;;;;;;;;;5070237;28;20024;-58
2023/02/27 02:39:43;;;;;;;2.88;2.20;;;;;;;;;;5066685;28;20028;-60
2023/02/27 02:42:22;;;;;;;4.10;2.65;;;;;;;;;;5062881;28;20497;-59
2023/02/27 02:45:02;;;;;;;4.82;3.00;;;;;;;;;;5071020;28;20029;-59
2023/02/27 02:47:38;;;;;;;4.75;2.67;;;;;;;;;;5067310;28;20416;-58
2023/02/27 02:50:17;;;;;;;4.00;2.47;;;;;;;;;;5066823;28;20059;-59
2023/02/27 02:52:55;;;;;;;4.55;2.25;;;;;;;;;;5071969;28;20074;-59
2023/02/27 02:55:30;;;;;;;4.95;2.97;;;;;;;;;;5069698;28;20373;-58
2023/02/27 02:58:03;;;;;;;3.85;2.38;;;;;;;;;;5080519;28;20035;-59
2023/02/27 03:00:39;;;;;;;5.65;2.38;;;;;;;;;;5069060;28;20021;-59
2023/02/27 03:03:21;;;;;;;4.28;2.05;;;;;;;;;;5066383;28;20025;-58
2023/02/27 03:05:57;;;;;;;3.03;2.15;;;;;;;;;;5052636;28;20073;-60
2023/02/27 03:08:28;;;;;;;5.65;2.50;;;;;;;;;;5069403;28;20043;-56
2023/02/27 03:10:59;;;;;;;3.95;2.60;;;;;;;;;;5070461;28;20028;-59
2023/02/27 03:13:34;;;;;;;4.32;2.47;;;;;;;;;;5069939;28;20024;-59
2023/02/27 03:16:11;;;;;;;4.07;2.72;;;;;;;;;;5069284;28;20031;-60
2023/02/27 03:19:02;;;;;;;4.38;2.42;;;;;;;;;;5067016;28;20436;-59
2023/02/27 03:21:39;;;;;;;3.58;2.40;;;;;;;;;;5069479;28;20444;-58
2023/02/27 03:24:08;;;;;;;3.45;2.42;;;;;;;;;;5069928;28;20028;-58
2023/02/27 03:26:39;;;;;;;6.68;2.40;;;;;;;;;;5068023;28;20016;-58
2023/02/27 03:29:15;;;;;;;3.33;2.80;;;;;;;;;;5066775;28;20028;-59
2023/02/27 03:31:54;;;;;;;5.63;3.13;;;;;;;;;;5032675;28;20070;-59
2023/02/27 03:34:28;;;;;;;;;;;;;;;;;;5053647;28;20107;-59
2023/02/27 03:37:15;;;;;;;5.40;2.50;;;;;;;;;;5066570;28;19909;-59
2023/02/27 03:39:51;;;;;;;4.72;2.58;;;;;;;;;;5062921;28;20032;-58
2023/02/27 03:42:27;;;;;;;3.42;2.33;;;;;;;;;;5071828;28;20037;-60
2023/02/27 03:45:20;;;;;;;7.63;2.60;;;;;;;;;;5068062;28;20374;-60
2023/02/27 03:47:45;;;;;;;3.83;2.25;;;;;;;;;;5060882;28;20036;-59
2023/02/27 03:50:11;;;;;;;4.97;2.40;;;;;;;;;;5067448;28;20084;-60
2023/02/27 03:52:37;;;;;;;5.55;3.03;;;;;;;;;;5066637;28;20025;-59
2023/02/27 03:55:19;;;;;;;3.85;2.60;;;;;;;;;;5067497;28;20037;-59
2023/02/27 03:57:46;;;;;;;5.07;2.20;;;;;;;;;;5045467;28;20025;-59
2023/02/27 04:00:21;;;;;;;5.72;2.90;;;;;;;;;;5067384;28;20099;-60
2023/02/27 04:02:50;;;;;;;3.78;2.70;;;;;;;;;;5069685;28;20048;-58
2023/02/27 04:05:16;;;;;;;6.28;2.83;;;;;;;;;;5062750;28;20028;-60
2023/02/27 04:08:03;;;;;;;6.10;2.70;;;;;;;;;;5067759;28;20195;-60
2023/02/27 04:10:56;;;;;;;3.55;2.78;;;;;;;;;;5066880;28;20025;-58
2023/02/27 04:13:36;;;;;;;8.45;2.90;;;;;;;;;;5068982;28;20032;-60
2023/02/27 04:16:27;;;;;;;5.65;3.05;;;;;;;;;;5067172;28;20031;-60
2023/02/27 04:18:52;;;;;;;3.70;2.75;;;;;;;;;;5063037;28;20028;-59
2023/02/27 04:21:35;;;;;;;4.97;2.53;;;;;;;;;;5068701;28;20033;-60
2023/02/27 04:24:12;;;;;;;2.75;2.45;;;;;;;;;;5067656;28;20020;-60
2023/02/27 04:27:07;;;;;;;4.88;2.90;;;;;;;;;;5067068;28;20029;-58
2023/02/27 04:30:02;;;;;;;7.15;4.28;;;;;;;;;;5067402;28;20025;-59
2023/02/27 04:32:40;;;;;;;10.48;4.80;;;;;;;;;;5060797;28;20036;-59
2023/02/27 04:35:19;;;;;;;8.57;3.97;;;;;;;;;;5067806;28;20086;-57
2023/02/27 04:37:59;;;;;;;5.53;3.28;;;;;;;;;;5064487;28;20035;-59
2023/02/27 04:40:49;;;;;;;5.85;3.47;;;;;;;;;;5066872;28;20123;-60
2023/02/27 04:43:16;;;;;;;5.35;2.90;;;;;;;;;;5067833;28;20058;-59
2023/02/27 04:45:44;;;;;;;4.20;2.97;;;;;;;;;;5053493;28;20050;-59
2023/02/27 04:48:18;;;;;;;4.88;2.97;;;;;;;;;;5066072;28;20040;-60
2023/02/27 04:50:49;;;;;;;6.97;3.55;;;;;;;;;;5067710;28;20020;-60
2023/02/27 04:53:23;;;;;;;5.18;3.33;;;;;;;;;;5068391;28;20107;-60
2023/02/27 04:55:53;;;;;;;8.23;3.45;;;;;;;;;;5067900;28;20055;-60
2023/02/27 04:58:24;;;;;;;6.35;3.55;;;;;;;;;;5066630;28;20051;-59
2023/02/27 05:00:56;;;;;;;7.28;3.83;;;;;;;;;;5067776;28;20028;-60
2023/02/27 05:03:31;;;;;;;14.88;5.60;;;;;;;;;;5049843;28;20059;-59
2023/02/27 05:06:00;;;;;;;13.90;5.32;;;;;;;;;;5068214;28;20016;-60
2023/02/27 05:08:25;;;;;;;10.18;4.50;;;;;;;;;;5068104;28;20107;-59
2023/02/27 05:11:06;;;;;;;6.78;3.47;;;;;;;;;;5067254;28;20079;-60
2023/02/27 05:13:37;;;;;;;9.23;4.70;;;;;;;;;;5068822;28;20021;-60
2023/02/27 05:16:19;;;;;;;11.20;4.72;;;;;;;;;;5066068;28;20056;-60
2023/02/27 05:18:45;;;;;;;17.23;5.57;;;;;;;;;;5065688;28;20111;-60
2023/02/27 05:21:34;;;;;;;11.93;5.88;;;;;;;;;;5065958;28;20494;-59
2023/02/27 05:24:31;;;;;;;11.60;5.35;;;;;;;;;;5067096;28;20029;-60
2023/02/27 05:27:19;;;;;;;8.63;4.05;;;;;;;;;;5063847;28;20044;-59
2023/02/27 05:29:50;;;;;;;7.75;3.70;;;;;;;;;;5068158;28;20066;-60
2023/02/27 05:32:45;;;;;;;14.63;6.05;;;;;;;;;;5066686;28;20020;-59
2023/02/27 05:35:35;;;;;;;17.02;7.57;;;;;;;;;;5069142;28;20016;-60
2023/02/27 05:38:08;;;;;;;9.90;5.57;;;;;;;;;;5070833;28;20028;-60
2023/02/27 05:40:43;;;;;;;7.43;4.50;;;;;;;;;;5068190;28;20029;-60
2023/02/27 05:43:17;;;;;;;6.32;4.00;;;;;;;;;;5071893;28;20024;-60
2023/02/27 05:45:46;;;;;;;6.75;4.28;;;;;;;;;;5067785;28;20074;-60
2023/02/27 05:48:22;;;;;;;7.35;4.95;;;;;;;;;;5069331;28;20048;-59
2023/02/27 05:50:50;;;;;;;7.70;4.25;;;;;;;;;;5070855;28;20029;-60
2023/02/27 05:53:18;;;;;;;8.45;3.78;;;;;;;;;;5071478;28;20457;-59
2023/02/27 05:55:49;;;;;;;8.20;4.00;;;;;;;;;;5071216;28;20028;-60
2023/02/27 05:58:49;;;;;;;8.88;4.90;;;;;;;;;;5069416;28;20500;-58
2023/02/27 06:01:15;;;;;;;11.70;5.18;;;;;;;;;;5051043;28;20422;-59
2023/02/27 06:03:41;;;;;;;10.95;4.93;;;;;;;;;;5051406;28;20033;-57
2023/02/27 06:06:17;;;;;;;11.57;5.97;;;;;;;;;;5070728;28;20107;-59
2023/02/27 06:08:44;;;;;;;15.73;6.85;;;;;;;;;;5066260;28;20048;-58
2023/02/27 06:11:09;;;;;;;7.90;4.82;;;;;;;;;;5069591;28;20024;-59
2023/02/27 06:13:35;;;;;;;7.15;3.97;;;;;;;;;;5070717;28;20036;-58
2023/02/27 06:16:00;;;;;;;8.43;4.57;;;;;;;;;;5070364;28;20022;-58
2023/02/27 06:18:26;;;;;;;10.35;4.60;;;;;;;;;;5102710;28;20283;-59
2023/02/27 06:20:51;;;;;;;9.77;5.10;;;;;;;;;;5064064;28;20047;-59
2023/02/27 06:23:17;;;;;;;7.00;4.97;;;;;;;;;;5050415;28;20029;-58
2023/02/27 06:25:42;;;;;;;8.63;5.32;;;;;;;;;;5072513;28;20020;-58
2023/02/27 06:28:09;;;;;;;11.68;6.15;;;;;;;;;;5065980;28;20020;-58
2023/02/27 06:30:35;;;;;;;8.85;5.95;;;;;;;;;;5058748;28;20021;-58
2023/02/27 06:33:01;;;;;;;10.55;5.03;;;;;;;;;;5070098;28;20025;-58
2023/02/27 06:35:28;;;;;;;8.93;4.55;;;;;;;;;;5082083;28;20495;-58
2023/02/27 06:37:55;;;;;;;8.52;4.43;;;;;;;;;;5068741;28;20492;-58
2023/02/27 06:40:20;;;;;;;13.15;5.13;;;;;;;;;;5069423;28;20024;-58
2023/02/27 06:42:46;;;;;;;8.45;4.53;;;;;;;;;;5069580;28;20481;-57
2023/02/27 06:45:13;;;;;;;6.25;3.90;;;;;;;;;;5051180;28;20028;-59
2023/02/27 06:47:40;;;;;;;6.28;4.07;;;;;;;;;;5066729;28;20086;-58
2023/02/27 06:50:06;;;;;;;6.15;3.50;;;;;;;;;;5070034;28;20024;-58
2023/02/27 06:52:32;;;;;;;6.57;4.30;;;;;;;;;;5051119;28;20458;-59
2023/02/27 06:54:57;;;;;;;9.77;4.82;;;;;;;;;;5062951;28;20115;-58
2023/02/27 06:57:23;;;;;;;9.05;4.70;;;;;;;;;;5063618;28;20516;-59
2023/02/27 06:59:49;;;;;;;7.68;4.00;;;;;;;;;;5064626;28;20044;-57
2023/02/27 07:02:16;;;;;;;6.18;3.97;;;;;;;;;;5068541;28;20036;-58
2023/02/27 07:04:42;;;;;;;8.65;4.28;;;;;;;;;;5066386;28;20046;-58
2023/02/27 07:07:08;;;;;;;6.72;4.00;;;;;;;;;;5066125;28;20029;-57
2023/02/27 07:09:37;;;;;;;6.03;3.50;;;;;;;;;;5065780;28;20021;-58
2023/02/27 07:12:04;;;;;;;6.88;4.15;;;;;;;;;;5049086;28;20128;-58
2023/02/27 07:14:29;;;;;;;7.90;4.22;;;;;;;;;;5067580;28;20025;-57
2023/02/27 07:16:55;;;;;;;7.65;4.15;;;;;;;;;;5064696;28;20081;-59
2023/02/27 07:19:22;;;;;;;6.43;4.25;;;;;;;;;;5034940;28;20020;-58
2023/02/27 07:21:47;;;;;;;11.43;4.78;;;;;;;;;;5068449;28;20028;-57
2023/02/27 07:24:13;;;;;;;10.07;5.50;;;;;;;;;;5069322;28;20035;-58
2023/02/27 07:26:38;;;;;;;9.38;5.18;;;;;;;;;;5066842;28;20077;-57
2023/02/27 07:29:04;;;;;;;8.75;4.65;;;;;;;;;;5065383;28;20298;-56
2023/02/27 07:31:30;;;;;;;9.23;5.18;;;;;;;;;;5069315;28;20028;-58
2023/02/27 07:33:55;;;;;;;15.77;7.70;;;;;;;;;;5069301;28;20032;-58
2023/02/27 07:36:21;;;;;;;14.30;7.22;;;;;;;;;;5052836;28;20044;-56
2023/02/27 07:38:46;;;;;;;18.73;7.32;;;;;;;;;;5049903;28;20138;-57
2023/02/27 07:41:12;;;;;;;9.52;6.18;;;;;;;;;;5052800;28;20027;-58
2023/02/27 07:43:37;;;;;;;9.02;5.28;;;;;;;;;;5074158;28;20023;-58
2023/02/27 07:46:02;;;;;;;14.75;6.85;;;;;;;;;;5068590;28;20027;-58
2023/02/27 07:48:29;;;;;;;9.65;5.47;;;;;;;;;;5066744;28;20470;-57
2023/02/27 07:50:55;;;;;;;8.20;4.82;;;;;;;;;;5049071;28;20017;-58
2023/02/27 07:53:20;;;;;;;9.93;4.85;;;;;;;;;;5068661;28;20097;-58
2023/02/27 07:55:46;;;;;;;9.18;4.60;;;;;;;;;;5052550;28;20033;-58
2023/02/27 07:58:11;;;;;;;9.75;4.60;;;;;;;;;;5067639;28;20040;-58
2023/02/27 08:00:37;;;;;;;10.80;5.00;;;;;;;;;;5067775;28;20024;-58
2023/02/27 08:03:03;;;;;;;11.50;5.07;;;;;;;;;;5069092;28;20024;-58
2023/02/27 08:05:28;;;;;;;9.70;4.78;;;;;;;;;;5069921;28;20493;-58
2023/02/27 08:07:54;;;;;;;8.73;5.53;;;;;;;;;;5067763;28;20031;-58
2023/02/27 08:10:19;;;;;;;9.25;5.00;;;;;;;;;;5066975;28;20500;-58
2023/02/27 08:12:44;;;;;;;11.88;5.00;;;;;;;;;;5068706;28;20023;-58
2023/02/27 08:15:10;;;;;;;8.55;4.68;;;;;;;;;;5069471;28;20030;-57
2023/02/27 08:17:36;;;;;;;9.85;4.57;;;;;;;;;;5068690;28;20505;-57
2023/02/27 08:20:03;;;;;;;8.90;4.38;;;;;;;;;;5068403;28;20031;-58
2023/02/27 08:22:28;;;;;;;7.88;4.60;;;;;;;;;;5061788;28;20267;-58
2023/02/27 08:24:54;;;;;;;8.43;4.82;;;;;;;;;;5069490;28;20138;-59
2023/02/27 08:27:19;;;;;;;7.53;4.75;;;;;;;;;;5068717;28;20089;-59
2023/02/27 08:29:44;;;;;;;8.48;4.68;;;;;;;;;;5067904;28;20485;-58
2023/02/27 08:32:10;;;;;;;7.35;4.38;;;;;;;;;;5069117;28;20028;-58
2023/02/27 08:34:35;;;;;;;8.23;4.75;;;;;;;;;;5068002;28;20359;-59
2023/02/27 08:37:01;;;;;;;6.40;4.80;;;;;;;;;;5068726;28;20112;-59
2023/02/27 08:39:26;;;;;;;9.23;5.65;;;;;;;;;;5067082;28;20440;-58
2023/02/27 08:41:52;;;;;;;5.88;4.80;;;;;;;;;;5070492;28;20040;-58
2023/02/27 08:44:19;;;;;;;9.52;5.13;;;;;;;;;;5053086;28;20074;-58
2023/02/27 08:46:44;;;;;;;8.75;4.93;;;;;;;;;;5068845;28;20017;-59
2023/02/27 08:49:10;;;;;;;13.02;5.00;;;;;;;;;;5048577;28;20027;-58
2023/02/27 08:51:35;;;;;;;11.38;5.28;;;;;;;;;;5068279;28;20055;-59
2023/02/27 08:54:01;;;;;;;7.70;4.22;;;;;;;;;;5069211;28;20039;-59
2023/02/27 08:56:27;;;;;;;6.60;4.03;;;;;;;;;;5068596;28;20008;-57
2023/02/27 08:58:53;;;;;;;8.65;4.75;;;;;;;;;;5068549;28;20032;-58
2023/02/27 09:01:18;;;;;;;10.80;4.38;;;;;;;;;;5049676;28;20032;-58
2023/02/27 09:03:44;;;;;;;6.30;3.70;;;;;;;;;;5067400;28;20013;-57
2023/02/27 09:06:10;;;;;;;7.63;4.38;;;;;;;;;;5069086;28;20024;-58
2023/02/27 09:08:35;;;;;;;8.18;4.15;;;;;;;;;;5070633;28;20013;-57
2023/02/27 09:11:01;;;;;;;5.88;3.47;;;;;;;;;;5072679;28;20514;-59
2023/02/27 09:13:27;;;;;;;5.53;3.72;;;;;;;;;;5072611;28;20051;-58
2023/02/27 09:15:53;;;;;;;6.63;3.33;;;;;;;;;;5073029;28;20063;-58
2023/02/27 09:18:18;;;;;;;4.22;3.05;;;;;;;;;;5071013;28;20102;-58
2023/02/27 09:20:43;;;;;;;8.52;3.10;;;;;;;;;;5070690;28;20020;-57
2023/02/27 09:23:10;;;;;;;5.13;3.22;;;;;;;;;;5071329;28;20103;-57
2023/02/27 09:25:36;;;;;;;6.45;3.53;;;;;;;;;;5071633;28;20603;-57
2023/02/27 09:28:01;;;;;;;6.22;3.17;;;;;;;;;;5070778;28;20465;-58
2023/02/27 09:30:27;;;;;;;10.05;3.28;;;;;;;;;;5071142;28;20024;-58
2023/02/27 09:32:52;;;;;;;5.45;3.20;;;;;;;;;;5071413;28;20043;-59
2023/02/27 09:35:21;;;;;;;6.93;3.13;;;;;;;;;;5071094;28;20111;-58
2023/02/27 09:37:48;;;;;;;3.97;2.92;;;;;;;;;;5071765;28;20097;-58
2023/02/27 09:40:24;;;;;;;3.55;2.50;;;;;;;;;;5072026;28;20104;-58
2023/02/27 09:42:52;;;;;;;6.20;2.38;;;;;;;;;;5072121;28;20032;-58
2023/02/27 09:45:27;;;;;;;3.08;2.60;;;;;;;;;;5071005;28;20020;-58
2023/02/27 09:48:06;;;;;;;3.10;2.40;;;;;;;;;;5070762;28;20052;-58
2023/02/27 09:50:48;;;;;;;3.80;2.08;;;;;;;;;;5070946;28;20423;-58
2023/02/27 09:53:29;;;;;;;9.90;2.60;;;;;;;;;;5072118;28;20036;-57
2023/02/27 09:56:00;;;;;;;5.40;2.47;;;;;;;;;;5072274;28;20100;-57
2023/02/27 09:58:43;;;;;;;5.97;3.60;;;;;;;;;;5070598;28;20114;-58
2023/02/27 10:01:22;;;;;;;4.15;2.53;;;;;;;;;;5072156;28;20550;-58
2023/02/27 10:04:17;;;;;;;6.25;3.05;;;;;;;;;;5072094;28;20540;-58
2023/02/27 10:07:08;;;;;;;11.85;2.95;;;;;;;;;;5011045;28;20033;-58
2023/02/27 10:09:36;;;;;;;3.17;2.25;;;;;;;;;;5068600;28;20040;-58
2023/02/27 10:12:39;;;;;;;3.85;2.70;;;;;;;;;;5071023;28;20093;-58
2023/02/27 10:15:11;;;;;;;5.63;3.47;;;;;;;;;;5069861;28;20563;-58
2023/02/27 10:17:50;;;;;;;6.35;3.17;;;;;;;;;;5069832;28;20059;-57
2023/02/27 10:20:22;;;;;;;4.35;2.70;;;;;;;;;;5068683;28;20458;-58
2023/02/27 10:22:50;;;;;;;11.43;2.75;;;;;;;;;;5071972;28;20044;-58
2023/02/27 10:25:18;;;;;;;16.80;5.03;;;;;;;;;;5071582;28;20034;-59
2023/02/27 10:27:46;;;;;;;7.93;3.60;;;;;;;;;;5069273;28;20112;-58
2023/02/27 10:30:28;;;;;;;7.25;2.90;;;;;;;;;;5084594;28;20036;-58
2023/02/27 10:33:19;;;;;;;5.82;2.90;;;;;;;;;;5071468;28;20043;-58
2023/02/27 10:35:45;;;;;;;8.20;2.92;;;;;;;;;;5069710;28;20028;-58
2023/02/27 10:38:21;;;;;;;5.70;3.13;;;;;;;;;;5070706;28;20107;-58
2023/02/27 10:40:47;;;;;;;5.63;3.25;;;;;;;;;;5070073;28;20023;-59
2023/02/27 10:43:15;;;;;;;4.43;2.75;;;;;;;;;;5051331;28;20032;-58
2023/02/27 10:45:42;;;;;;;5.57;3.72;;;;;;;;;;5069341;28;20362;-58
2023/02/27 10:48:09;;;;;;;6.35;3.15;;;;;;;;;;5052566;28;20064;-59
2023/02/27 10:50:38;;;;;;;5.03;3.15;;;;;;;;;;5052687;28;20481;-58
2023/02/27 10:53:15;;;;;;;7.00;3.43;;;;;;;;;;5069739;28;20078;-58
2023/02/27 10:55:41;;;;;;;7.22;3.42;;;;;;;;;;5053488;28;20039;-58
2023/02/27 10:58:07;;;;;;;10.02;5.30;;;;;;;;;;5075040;28;20031;-58
2023/02/27 11:01:06;;;;;;;6.40;3.60;;;;;;;;;;5053261;28;20020;-59
2023/02/27 11:03:35;;;;;;;6.83;3.10;;;;;;;;;;5058536;28;20506;-59
2023/02/27 11:06:05;;;;;;;5.72;3.63;;;;;;;;;;5069385;28;20266;-59
2023/02/27 11:08:31;;;;;;;;;;;;;;;;;;5068909;28;20473;-59
2023/02/27 11:11:03;;;;;;;4.57;3.17;;;;;;;;;;5069036;28;19916;-59
2023/02/27 11:13:31;;;;;;;7.35;3.00;;;;;;;;;;5062506;28;20107;-59
2023/02/27 11:16:16;;;;;;;8.70;3.83;;;;;;;;;;5071109;28;20035;-59
2023/02/27 11:18:44;;;;;;;5.20;3.08;;;;;;;;;;5069520;28;20017;-58
2023/02/27 11:21:26;;;;;;;7.78;3.30;;;;;;;;;;5068885;28;20066;-58
2023/02/27 11:23:57;;;;;;;6.53;4.00;;;;;;;;;;5070658;28;20031;-58
2023/02/27 11:26:58;;;;;;;7.55;4.03;;;;;;;;;;5070157;28;22040;-59
2023/02/27 11:29:25;;;;;;;10.40;3.40;;;;;;;;;;5069451;28;20355;-58
2023/02/27 11:31:53;;;;;;;4.95;3.35;;;;;;;;;;5068238;28;20044;-59
2023/02/27 11:34:49;;;;;;;4.93;3.65;;;;;;;;;;5068580;28;20020;-58
2023/02/27 11:37:34;;;;;;;8.88;4.85;;;;;;;;;;5067579;28;20036;-59
2023/02/27 11:40:08;;;;;;;5.72;4.40;;;;;;;;;;5069528;28;20416;-57
2023/02/27 11:42:36;;;;;;;3.28;2.83;;;;;;;;;;5069425;28;20366;-58
2023/02/27 11:45:07;;;;;;;7.85;5.53;;;;;;;;;;5068626;28;20103;-59
2023/02/27 11:47:36;;;;;;;7.10;3.83;;;;;;;;;;5068044;28;20460;-58
2023/02/27 11:50:39;;;;;;;6.03;3.85;;;;;;;;;;5069979;28;20024;-58
2023/02/27 11:53:11;;;;;;;4.80;3.40;;;;;;;;;;5068240;28;20480;-57
2023/02/27 11:55:36;;;;;;;6.10;4.05;;;;;;;;;;5070110;28;20020;-60
2023/02/27 11:58:19;;;;;;;5.65;3.55;;;;;;;;;;5051618;28;20024;-60
2023/02/27 12:00:50;;;;;;;7.57;5.63;;;;;;;;;;5067314;28;20035;-60
2023/02/27 12:03:34;;;;;;;9.55;4.80;;;;;;;;;;5069166;28;20386;-59
2023/02/27 12:06:03;;;;;;;6.22;3.90;;;;;;;;;;5076089;28;20111;-60
2023/02/27 12:08:41;;;;;;;12.48;7.45;;;;;;;;;;5061497;28;20023;-60
2023/02/27 12:11:19;;;;;;;6.32;4.70;;;;;;;;;;5069461;28;20169;-59
2023/02/27 12:13:52;;;;;;;7.78;4.20;;;;;;;;;;5065451;28;20474;-59
2023/02/27 12:16:57;;;;;;;16.38;6.07;;;;;;;;;;5066986;28;20370;-59
2023/02/27 12:19:29;;;;;;;12.73;5.07;;;;;;;;;;5044195;28;20051;-59
2023/02/27 12:22:03;;;;;;;10.32;4.85;;;;;;;;;;5051044;28;20028;-59
2023/02/27 12:24:42;;;;;;;11.50;5.57;;;;;;;;;;5069556;28;20026;-60
2023/02/27 12:27:24;;;;;;;9.05;4.97;;;;;;;;;;5051357;28;20028;-60
2023/02/27 12:29:51;;;;;;;7.10;3.50;;;;;;;;;;5068424;28;20115;-59
2023/02/27 12:32:20;;;;;;;5.32;3.90;;;;;;;;;;5069419;28;20030;-59
2023/02/27 12:34:57;;;;;;;7.32;3.88;;;;;;;;;;5068144;28;20020;-59
2023/02/27 12:37:24;;;;;;;6.03;3.63;;;;;;;;;;5068449;28;20358;-59
2023/02/27 12:39:51;;;;;;;6.82;3.63;;;;;;;;;;5067606;28;20025;-59
2023/02/27 12:42:35;;;;;;;10.18;3.88;;;;;;;;;;5067924;28;20043;-59
2023/02/27 12:45:19;;;;;;;7.45;3.95;;;;;;;;;;5067295;28;20024;-59
2023/02/27 12:47:59;;;;;;;6.93;3.47;;;;;;;;;;5067975;28;20119;-60
2023/02/27 12:50:37;;;;;;;8.18;4.13;;;;;;;;;;5068422;28;20021;-59
2023/02/27 12:53:37;;;;;;;5.13;3.30;;;;;;;;;;5069188;28;20032;-59
2023/02/27 12:56:16;;;;;;;7.00;3.83;;;;;;;;;;5065654;28;20017;-56
2023/02/27 12:58:50;;;;;;;8.10;3.33;;;;;;;;;;5067568;28;20024;-59
2023/02/27 13:01:42;;;;;;;9.48;4.20;;;;;;;;;;5068384;28;20127;-59
2023/02/27 13:04:26;;;;;;;5.60;3.50;;;;;;;;;;5032572;28;20082;-59
2023/02/27 13:07:07;;;;;;;7.15;3.53;;;;;;;;;;5075339;28;20037;-59
2023/02/27 13:09:38;;;;;;;7.32;3.50;;;;;;;;;;5076712;28;20027;-59
2023/02/27 13:12:26;;;;;;;5.90;3.70;;;;;;;;;;5069182;28;20370;-58
2023/02/27 13:15:13;;;;;;;9.23;4.40;;;;;;;;;;5067121;28;20082;-59
2023/02/27 13:17:46;;;;;;;8.63;4.63;;;;;;;;;;5060392;28;20020;-59
2023/02/27 13:20:20;;;;;;;5.68;3.75;;;;;;;;;;5048584;28;20060;-60
2023/02/27 13:23:11;;;;;;;6.60;3.65;;;;;;;;;;5068232;28;20024;-60
2023/02/27 13:25:38;;;;;;;8.73;4.70;;;;;;;;;;5099540;28;20490;-60
2023/02/27 13:28:07;;;;;;;7.75;4.13;;;;;;;;;;5068151;28;20116;-59
2023/02/27 13:30:37;;;;;;;6.95;3.72;;;;;;;;;;5066138;28;20489;-59
2023/02/27 13:33:24;;;;;;;8.23;3.75;;;;;;;;;;5068403;28;20032;-59
2023/02/27 13:36:28;;;;;;;7.97;4.50;;;;;;;;;;5067379;28;20016;-59
2023/02/27 13:38:55;;;;;;;14.38;5.85;;;;;;;;;;5065205;28;20037;-59
2023/02/27 13:41:20;;;;;;;12.70;5.30;;;;;;;;;;5067398;28;20450;-59
2023/02/27 13:43:46;;;;;;;11.55;4.43;;;;;;;;;;5067481;28;20111;-59
2023/02/27 13:46:33;;;;;;;9.48;3.88;;;;;;;;;;5066939;28;20027;-59
2023/02/27 13:49:06;;;;;;;10.85;5.82;;;;;;;;;;5064244;28;20477;-59
2023/02/27 13:51:34;;;;;;;8.43;3.97;;;;;;;;;;5068806;28;20032;-60
2023/02/27 13:54:18;;;;;;;5.53;3.40;;;;;;;;;;5066935;28;20021;-60
2023/02/27 13:56:53;;;;;;;8.38;5.25;;;;;;;;;;5048327;28;20024;-59
2023/02/27 13:59:22;;;;;;;6.80;4.28;;;;;;;;;;5071915;28;20082;-59
2023/02/27 14:01:54;;;;;;;8.50;3.97;;;;;;;;;;5070259;28;20059;-60
2023/02/27 14:04:23;;;;;;;4.82;3.45;;;;;;;;;;5053107;28;20016;-59
2023/02/27 14:06:49;;;;;;;7.18;3.80;;;;;;;;;;5070538;28;20020;-60
2023/02/27 14:09:19;;;;;;;11.30;5.18;;;;;;;;;;5054181;28;20028;-59
2023/02/27 14:12:01;;;;;;;10.32;5.22;;;;;;;;;;5070926;28;20024;-59
2023/02/27 14:14:49;;;;;;;11.73;5.15;;;;;;;;;;5071656;28;20025;-59
2023/02/27 14:17:36;;;;;;;11.25;4.90;;;;;;;;;;5071065;28;20047;-60
2023/02/27 14:20:29;;;;;;;7.88;3.90;;;;;;;;;;5071023;28;20020;-59
2023/02/27 14:23:16;;;;;;;9.13;4.40;;;;;;;;;;5044844;28;20287;-60
2023/02/27 14:25:50;;;;;;;7.55;3.58;;;;;;;;;;5070121;28;20569;-59
2023/02/27 14:28:22;;;;;;;6.03;3.45;;;;;;;;;;5069405;28;20067;-59
2023/02/27 14:31:00;;;;;;;6.60;3.30;;;;;;;;;;5071399;28;20025;-59
2023/02/27 14:33:29;;;;;;;6.80;4.10;;;;;;;;;;5071528;28;20074;-59
2023/02/27 14:35:57;;;;;;;;;;;;;;;;;;5069822;28;20032;-60
2023/02/27 14:38:24;;;;;;;7.72;3.47;;;;;;;;;;5069150;28;19923;-59
2023/02/27 14:41:04;;;;;;;6.93;3.92;;;;;;;;;;5071565;28;20028;-58
2023/02/27 14:43:43;;;;;;;7.40;3.80;;;;;;;;;;5067554;28;20019;-60
2023/02/27 14:46:24;;;;;;;10.60;4.15;;;;;;;;;;5071078;28;20036;-59
2023/02/27 14:49:15;;;;;;;15.35;5.15;;;;;;;;;;5069357;28;20400;-59
2023/02/27 14:51:41;;;;;;;8.00;4.13;;;;;;;;;;5070337;28;20062;-60
2023/02/27 14:54:12;;;;;;;11.55;4.80;;;;;;;;;;5050528;28;20428;-60
2023/02/27 14:56:37;;;;;;;7.53;4.30;;;;;;;;;;5070740;28;20099;-59
2023/02/27 14:59:21;;;;;;;9.40;4.97;;;;;;;;;;5068889;28;20108;-57
2023/02/27 15:01:46;;;;;;;10.68;5.30;;;;;;;;;;5064114;28;20429;-60
2023/02/27 15:04:17;;;;;;;8.82;4.30;;;;;;;;;;5075266;28;20016;-59
2023/02/27 15:06:46;;;;;;;9.38;4.65;;;;;;;;;;5068849;28;20112;-59
2023/02/27 15:09:19;;;;;;;11.47;5.90;;;;;;;;;;5069699;28;20020;-59
2023/02/27 15:11:45;;;;;;;9.63;4.35;;;;;;;;;;5070425;28;20254;-59